sensor_id;sensor_type;location;lat;lon;timestamp;P1;durP1;ratioP1;P2;durP2;ratioP2
27305;SDS011;14792;50.886;6.468;2024-02-21T00:00:23;29.82;;;10.08;;
27305;SDS011;14792;50.886;6.468;2024-02-21T00:03:25;33.90;;;10.48;;
27305;SDS011;14792;50.886;6.468;2024-02-21T00:06:26;29.63;;;9.93;;
27305;SDS011;14792;50.886;6.468;2024-02-21T00:09:28;28.65;;;10.35;;
27305;SDS011;14792;50.886;6.468;2024-02-21T00:12:30;27.65;;;10.43;;
27305;SDS011;14792;50.886;6.468;2024-02-21T00:15:31;24.05;;;9.13;;
27305;SDS011;14792;50.886;6.468;2024-02-21T00:18:33;32.15;;;9.55;;
27305;SDS011;14792;50.886;6.468;2024-02-21T00:21:34;28.90;;;10.15;;
27305;SDS011;14792;50.886;6.468;2024-02-21T00:24:36;34.20;;;9.55;;
27305;SDS011;14792;50.886;6.468;2024-02-21T00:27:38;31.48;;;10.20;;
27305;SDS011;14792;50.886;6.468;2024-02-21T00:30:39;29.85;;;10.08;;
27305;SDS011;14792;50.886;6.468;2024-02-21T00:33:41;33.02;;;11.18;;
27305;SDS011;14792;50.886;6.468;2024-02-21T00:36:42;28.45;;;9.45;;
27305;SDS011;14792;50.886;6.468;2024-02-21T00:39:44;25.72;;;9.60;;
27305;SDS011;14792;50.886;6.468;2024-02-21T00:42:46;24.18;;;9.85;;
27305;SDS011;14792;50.886;6.468;2024-02-21T00:45:47;25.17;;;9.73;;
27305;SDS011;14792;50.886;6.468;2024-02-21T00:48:49;30.57;;;9.73;;
27305;SDS011;14792;50.886;6.468;2024-02-21T00:51:50;25.30;;;9.30;;
27305;SDS011;14792;50.886;6.468;2024-02-21T00:54:52;25.35;;;9.73;;
27305;SDS011;14792;50.886;6.468;2024-02-21T00:57:53;27.58;;;10.43;;
27305;SDS011;14792;50.886;6.468;2024-02-21T01:00:55;29.40;;;9.30;;
27305;SDS011;14792;50.886;6.468;2024-02-21T01:03:56;28.23;;;10.13;;
27305;SDS011;14792;50.886;6.468;2024-02-21T01:06:58;28.25;;;9.88;;
27305;SDS011;14792;50.886;6.468;2024-02-21T01:10:00;22.07;;;9.33;;
27305;SDS011;14792;50.886;6.468;2024-02-21T01:13:01;28.73;;;9.80;;
27305;SDS011;14792;50.886;6.468;2024-02-21T01:16:03;35.08;;;11.08;;
27305;SDS011;14792;50.886;6.468;2024-02-21T01:19:04;28.42;;;10.25;;
27305;SDS011;14792;50.886;6.468;2024-02-21T01:22:06;25.57;;;9.75;;
27305;SDS011;14792;50.886;6.468;2024-02-21T01:25:08;24.67;;;9.05;;
27305;SDS011;14792;50.886;6.468;2024-02-21T01:28:09;25.57;;;8.98;;
27305;SDS011;14792;50.886;6.468;2024-02-21T01:31:11;29.30;;;9.78;;
27305;SDS011;14792;50.886;6.468;2024-02-21T01:34:13;33.40;;;9.95;;
27305;SDS011;14792;50.886;6.468;2024-02-21T01:37:14;23.75;;;9.68;;
27305;SDS011;14792;50.886;6.468;2024-02-21T01:40:16;27.77;;;10.25;;
27305;SDS011;14792;50.886;6.468;2024-02-21T01:43:20;25.25;;;10.13;;
27305;SDS011;14792;50.886;6.468;2024-02-21T01:46:22;25.27;;;9.75;;
27305;SDS011;14792;50.886;6.468;2024-02-21T01:49:23;27.45;;;10.55;;
27305;SDS011;14792;50.886;6.468;2024-02-21T01:52:25;27.62;;;9.93;;
27305;SDS011;14792;50.886;6.468;2024-02-21T01:55:26;26.57;;;10.03;;
27305;SDS011;14792;50.886;6.468;2024-02-21T01:58:28;26.50;;;10.03;;
27305;SDS011;14792;50.886;6.468;2024-02-21T02:01:30;25.50;;;8.88;;
27305;SDS011;14792;50.886;6.468;2024-02-21T02:04:31;37.50;;;11.15;;
27305;SDS011;14792;50.886;6.468;2024-02-21T02:07:33;26.02;;;10.20;;
27305;SDS011;14792;50.886;6.468;2024-02-21T02:10:34;23.12;;;9.08;;
27305;SDS011;14792;50.886;6.468;2024-02-21T02:13:36;28.95;;;9.10;;
27305;SDS011;14792;50.886;6.468;2024-02-21T02:16:37;30.05;;;9.90;;
27305;SDS011;14792;50.886;6.468;2024-02-21T02:19:39;21.55;;;8.68;;
27305;SDS011;14792;50.886;6.468;2024-02-21T02:22:41;27.15;;;9.00;;
27305;SDS011;14792;50.886;6.468;2024-02-21T02:25:42;21.55;;;7.87;;
27305;SDS011;14792;50.886;6.468;2024-02-21T02:28:44;33.35;;;8.88;;
27305;SDS011;14792;50.886;6.468;2024-02-21T02:31:45;23.35;;;8.20;;
27305;SDS011;14792;50.886;6.468;2024-02-21T02:34:47;27.02;;;8.33;;
27305;SDS011;14792;50.886;6.468;2024-02-21T02:37:49;26.70;;;8.90;;
27305;SDS011;14792;50.886;6.468;2024-02-21T02:40:50;24.50;;;8.85;;
27305;SDS011;14792;50.886;6.468;2024-02-21T02:43:52;24.07;;;8.58;;
27305;SDS011;14792;50.886;6.468;2024-02-21T02:46:53;25.82;;;8.83;;
27305;SDS011;14792;50.886;6.468;2024-02-21T02:49:55;19.05;;;8.10;;
27305;SDS011;14792;50.886;6.468;2024-02-21T02:52:56;23.32;;;8.48;;
27305;SDS011;14792;50.886;6.468;2024-02-21T02:55:58;25.15;;;8.08;;
27305;SDS011;14792;50.886;6.468;2024-02-21T02:59:00;24.27;;;8.10;;
27305;SDS011;14792;50.886;6.468;2024-02-21T03:02:01;31.95;;;9.93;;
27305;SDS011;14792;50.886;6.468;2024-02-21T03:05:03;21.85;;;8.80;;
27305;SDS011;14792;50.886;6.468;2024-02-21T03:08:04;21.60;;;8.23;;
27305;SDS011;14792;50.886;6.468;2024-02-21T03:11:06;22.13;;;8.43;;
27305;SDS011;14792;50.886;6.468;2024-02-21T03:14:08;21.70;;;8.45;;
27305;SDS011;14792;50.886;6.468;2024-02-21T03:17:09;27.17;;;8.50;;
27305;SDS011;14792;50.886;6.468;2024-02-21T03:20:11;24.82;;;8.08;;
27305;SDS011;14792;50.886;6.468;2024-02-21T03:23:12;21.23;;;7.65;;
27305;SDS011;14792;50.886;6.468;2024-02-21T03:26:14;25.02;;;8.28;;
27305;SDS011;14792;50.886;6.468;2024-02-21T03:29:16;27.77;;;8.58;;
27305;SDS011;14792;50.886;6.468;2024-02-21T03:32:17;24.87;;;7.95;;
27305;SDS011;14792;50.886;6.468;2024-02-21T03:35:19;19.35;;;7.25;;
27305;SDS011;14792;50.886;6.468;2024-02-21T03:38:20;27.40;;;8.40;;
27305;SDS011;14792;50.886;6.468;2024-02-21T03:41:23;18.82;;;7.85;;
27305;SDS011;14792;50.886;6.468;2024-02-21T03:44:25;21.12;;;7.87;;
27305;SDS011;14792;50.886;6.468;2024-02-21T03:47:26;21.87;;;8.30;;
27305;SDS011;14792;50.886;6.468;2024-02-21T03:50:28;27.22;;;8.03;;
27305;SDS011;14792;50.886;6.468;2024-02-21T03:53:30;30.30;;;8.85;;
27305;SDS011;14792;50.886;6.468;2024-02-21T03:56:31;16.97;;;7.28;;
27305;SDS011;14792;50.886;6.468;2024-02-21T03:59:33;21.55;;;8.35;;
27305;SDS011;14792;50.886;6.468;2024-02-21T04:02:34;25.88;;;8.70;;
27305;SDS011;14792;50.886;6.468;2024-02-21T04:05:36;23.40;;;8.15;;
27305;SDS011;14792;50.886;6.468;2024-02-21T04:08:38;17.67;;;7.22;;
27305;SDS011;14792;50.886;6.468;2024-02-21T04:11:39;29.27;;;8.58;;
27305;SDS011;14792;50.886;6.468;2024-02-21T04:14:41;19.15;;;7.85;;
27305;SDS011;14792;50.886;6.468;2024-02-21T04:17:42;22.13;;;8.23;;
27305;SDS011;14792;50.886;6.468;2024-02-21T04:20:44;24.57;;;8.28;;
27305;SDS011;14792;50.886;6.468;2024-02-21T04:23:45;24.07;;;8.38;;
27305;SDS011;14792;50.886;6.468;2024-02-21T04:26:47;19.90;;;7.53;;
27305;SDS011;14792;50.886;6.468;2024-02-21T04:29:49;17.20;;;7.28;;
27305;SDS011;14792;50.886;6.468;2024-02-21T04:32:50;17.55;;;7.22;;
27305;SDS011;14792;50.886;6.468;2024-02-21T04:35:52;17.70;;;7.00;;
27305;SDS011;14792;50.886;6.468;2024-02-21T04:38:53;19.85;;;7.75;;
27305;SDS011;14792;50.886;6.468;2024-02-21T04:41:55;16.90;;;6.20;;
27305;SDS011;14792;50.886;6.468;2024-02-21T04:44:57;19.27;;;6.87;;
27305;SDS011;14792;50.886;6.468;2024-02-21T04:47:58;14.25;;;6.22;;
27305;SDS011;14792;50.886;6.468;2024-02-21T04:51:00;22.22;;;6.30;;
27305;SDS011;14792;50.886;6.468;2024-02-21T04:54:01;17.35;;;6.78;;
27305;SDS011;14792;50.886;6.468;2024-02-21T04:57:03;16.42;;;6.75;;
27305;SDS011;14792;50.886;6.468;2024-02-21T05:00:05;15.65;;;6.42;;
27305;SDS011;14792;50.886;6.468;2024-02-21T05:03:06;17.80;;;7.37;;
27305;SDS011;14792;50.886;6.468;2024-02-21T05:06:08;19.67;;;6.80;;
27305;SDS011;14792;50.886;6.468;2024-02-21T05:09:09;16.95;;;6.60;;
27305;SDS011;14792;50.886;6.468;2024-02-21T05:12:11;14.07;;;5.85;;
27305;SDS011;14792;50.886;6.468;2024-02-21T05:15:13;12.68;;;5.40;;
27305;SDS011;14792;50.886;6.468;2024-02-21T05:18:14;12.80;;;5.33;;
27305;SDS011;14792;50.886;6.468;2024-02-21T05:21:16;16.02;;;5.62;;
27305;SDS011;14792;50.886;6.468;2024-02-21T05:24:17;15.85;;;5.03;;
27305;SDS011;14792;50.886;6.468;2024-02-21T05:27:19;15.55;;;5.08;;
27305;SDS011;14792;50.886;6.468;2024-02-21T05:30:21;15.80;;;5.33;;
27305;SDS011;14792;50.886;6.468;2024-02-21T05:33:22;13.65;;;5.17;;
27305;SDS011;14792;50.886;6.468;2024-02-21T05:36:24;17.82;;;5.90;;
27305;SDS011;14792;50.886;6.468;2024-02-21T05:39:25;21.48;;;6.08;;
27305;SDS011;14792;50.886;6.468;2024-02-21T05:42:27;14.40;;;5.20;;
27305;SDS011;14792;50.886;6.468;2024-02-21T05:45:28;14.98;;;6.17;;
27305;SDS011;14792;50.886;6.468;2024-02-21T05:48:30;16.50;;;5.20;;
27305;SDS011;14792;50.886;6.468;2024-02-21T05:51:32;13.80;;;5.35;;
27305;SDS011;14792;50.886;6.468;2024-02-21T05:54:33;18.27;;;6.58;;
27305;SDS011;14792;50.886;6.468;2024-02-21T05:57:35;14.73;;;5.50;;
27305;SDS011;14792;50.886;6.468;2024-02-21T06:00:36;18.52;;;6.03;;
27305;SDS011;14792;50.886;6.468;2024-02-21T06:03:38;19.45;;;6.83;;
27305;SDS011;14792;50.886;6.468;2024-02-21T06:06:40;14.63;;;6.17;;
27305;SDS011;14792;50.886;6.468;2024-02-21T06:09:41;18.00;;;6.65;;
27305;SDS011;14792;50.886;6.468;2024-02-21T06:12:43;24.82;;;6.50;;
27305;SDS011;14792;50.886;6.468;2024-02-21T06:15:44;14.98;;;6.17;;
27305;SDS011;14792;50.886;6.468;2024-02-21T06:18:46;19.85;;;6.40;;
27305;SDS011;14792;50.886;6.468;2024-02-21T06:21:47;23.90;;;6.72;;
27305;SDS011;14792;50.886;6.468;2024-02-21T06:24:49;16.52;;;6.40;;
27305;SDS011;14792;50.886;6.468;2024-02-21T06:27:51;16.93;;;7.17;;
27305;SDS011;14792;50.886;6.468;2024-02-21T06:30:52;27.93;;;7.80;;
27305;SDS011;14792;50.886;6.468;2024-02-21T06:33:54;24.15;;;6.42;;
27305;SDS011;14792;50.886;6.468;2024-02-21T06:36:55;18.60;;;6.60;;
27305;SDS011;14792;50.886;6.468;2024-02-21T06:39:57;21.57;;;6.83;;
27305;SDS011;14792;50.886;6.468;2024-02-21T06:42:59;22.65;;;6.70;;
27305;SDS011;14792;50.886;6.468;2024-02-21T06:46:00;19.40;;;5.87;;
27305;SDS011;14792;50.886;6.468;2024-02-21T06:49:02;18.77;;;6.80;;
27305;SDS011;14792;50.886;6.468;2024-02-21T06:52:06;16.35;;;6.05;;
27305;SDS011;14792;50.886;6.468;2024-02-21T06:55:08;21.02;;;6.28;;
27305;SDS011;14792;50.886;6.468;2024-02-21T06:58:09;21.85;;;6.42;;
27305;SDS011;14792;50.886;6.468;2024-02-21T07:01:11;20.05;;;6.42;;
27305;SDS011;14792;50.886;6.468;2024-02-21T07:04:12;17.75;;;6.90;;
27305;SDS011;14792;50.886;6.468;2024-02-21T07:07:14;24.98;;;6.50;;
27305;SDS011;14792;50.886;6.468;2024-02-21T07:10:15;24.50;;;6.45;;
27305;SDS011;14792;50.886;6.468;2024-02-21T07:13:17;19.92;;;5.92;;
27305;SDS011;14792;50.886;6.468;2024-02-21T07:16:19;19.67;;;5.87;;
27305;SDS011;14792;50.886;6.468;2024-02-21T07:19:20;22.48;;;6.17;;
27305;SDS011;14792;50.886;6.468;2024-02-21T07:22:22;14.95;;;6.17;;
27305;SDS011;14792;50.886;6.468;2024-02-21T07:25:23;20.60;;;6.55;;
27305;SDS011;14792;50.886;6.468;2024-02-21T07:28:25;21.17;;;8.03;;
27305;SDS011;14792;50.886;6.468;2024-02-21T07:31:27;22.67;;;8.13;;
27305;SDS011;14792;50.886;6.468;2024-02-21T07:34:28;28.65;;;8.60;;
27305;SDS011;14792;50.886;6.468;2024-02-21T07:37:30;23.70;;;8.10;;
27305;SDS011;14792;50.886;6.468;2024-02-21T07:40:32;20.88;;;5.83;;
27305;SDS011;14792;50.886;6.468;2024-02-21T07:43:33;22.52;;;6.25;;
27305;SDS011;14792;50.886;6.468;2024-02-21T07:46:35;16.37;;;5.62;;
27305;SDS011;14792;50.886;6.468;2024-02-21T07:49:45;14.78;;;5.55;;
27305;SDS011;14792;50.886;6.468;2024-02-21T07:52:46;16.05;;;5.55;;
27305;SDS011;14792;50.886;6.468;2024-02-21T07:55:48;19.50;;;5.03;;
27305;SDS011;14792;50.886;6.468;2024-02-21T07:58:49;18.62;;;5.58;;
27305;SDS011;14792;50.886;6.468;2024-02-21T08:01:51;17.05;;;4.95;;
27305;SDS011;14792;50.886;6.468;2024-02-21T08:04:52;15.18;;;4.87;;
27305;SDS011;14792;50.886;6.468;2024-02-21T08:07:54;14.35;;;5.60;;
27305;SDS011;14792;50.886;6.468;2024-02-21T08:10:56;12.65;;;4.45;;
27305;SDS011;14792;50.886;6.468;2024-02-21T08:13:57;13.65;;;4.53;;
27305;SDS011;14792;50.886;6.468;2024-02-21T08:16:59;12.37;;;4.25;;
27305;SDS011;14792;50.886;6.468;2024-02-21T08:20:00;14.58;;;4.58;;
27305;SDS011;14792;50.886;6.468;2024-02-21T08:23:02;9.68;;;3.65;;
27305;SDS011;14792;50.886;6.468;2024-02-21T08:26:04;13.78;;;4.80;;
27305;SDS011;14792;50.886;6.468;2024-02-21T08:29:05;9.83;;;3.40;;
27305;SDS011;14792;50.886;6.468;2024-02-21T08:32:07;11.05;;;3.37;;
27305;SDS011;14792;50.886;6.468;2024-02-21T08:35:08;11.80;;;3.40;;
27305;SDS011;14792;50.886;6.468;2024-02-21T08:41:12;10.80;;;3.65;;
27305;SDS011;14792;50.886;6.468;2024-02-21T08:44:13;10.93;;;3.52;;
27305;SDS011;14792;50.886;6.468;2024-02-21T08:47:15;10.70;;;3.40;;
27305;SDS011;14792;50.886;6.468;2024-02-21T08:50:17;9.03;;;3.27;;
27305;SDS011;14792;50.886;6.468;2024-02-21T08:53:19;8.80;;;3.27;;
27305;SDS011;14792;50.886;6.468;2024-02-21T08:56:21;13.95;;;4.40;;
27305;SDS011;14792;50.886;6.468;2024-02-21T08:59:22;10.60;;;4.40;;
27305;SDS011;14792;50.886;6.468;2024-02-21T09:02:24;9.70;;;3.60;;
27305;SDS011;14792;50.886;6.468;2024-02-21T09:05:25;10.32;;;3.35;;
27305;SDS011;14792;50.886;6.468;2024-02-21T09:08:27;12.23;;;3.77;;
27305;SDS011;14792;50.886;6.468;2024-02-21T09:11:28;9.38;;;4.03;;
27305;SDS011;14792;50.886;6.468;2024-02-21T09:14:30;14.23;;;4.50;;
27305;SDS011;14792;50.886;6.468;2024-02-21T09:17:32;10.58;;;3.37;;
27305;SDS011;14792;50.886;6.468;2024-02-21T09:20:33;10.72;;;3.45;;
27305;SDS011;14792;50.886;6.468;2024-02-21T09:23:35;11.15;;;3.80;;
27305;SDS011;14792;50.886;6.468;2024-02-21T09:26:36;11.95;;;3.55;;
27305;SDS011;14792;50.886;6.468;2024-02-21T09:29:38;10.18;;;3.10;;
27305;SDS011;14792;50.886;6.468;2024-02-21T09:32:40;6.33;;;3.25;;
27305;SDS011;14792;50.886;6.468;2024-02-21T09:35:41;10.88;;;4.10;;
27305;SDS011;14792;50.886;6.468;2024-02-21T09:38:43;11.38;;;3.22;;
27305;SDS011;14792;50.886;6.468;2024-02-21T09:41:49;11.43;;;3.33;;
27305;SDS011;14792;50.886;6.468;2024-02-21T09:44:49;9.40;;;3.20;;
27305;SDS011;14792;50.886;6.468;2024-02-21T09:51:22;9.48;;;3.67;;
27305;SDS011;14792;50.886;6.468;2024-02-21T09:54:24;9.95;;;2.92;;
27305;SDS011;14792;50.886;6.468;2024-02-21T09:57:25;12.80;;;3.08;;
27305;SDS011;14792;50.886;6.468;2024-02-21T10:00:27;11.78;;;3.02;;
27305;SDS011;14792;50.886;6.468;2024-02-21T10:03:29;10.30;;;3.17;;
27305;SDS011;14792;50.886;6.468;2024-02-21T10:06:30;12.13;;;3.15;;
27305;SDS011;14792;50.886;6.468;2024-02-21T10:09:32;11.43;;;3.02;;
27305;SDS011;14792;50.886;6.468;2024-02-21T10:12:33;7.03;;;2.60;;
27305;SDS011;14792;50.886;6.468;2024-02-21T10:15:35;11.57;;;2.87;;
27305;SDS011;14792;50.886;6.468;2024-02-21T10:18:36;13.65;;;3.47;;
27305;SDS011;14792;50.886;6.468;2024-02-21T10:21:38;13.50;;;2.92;;
27305;SDS011;14792;50.886;6.468;2024-02-21T10:24:40;8.83;;;2.42;;
27305;SDS011;14792;50.886;6.468;2024-02-21T10:27:44;7.85;;;2.90;;
27305;SDS011;14792;50.886;6.468;2024-02-21T10:30:51;7.33;;;2.58;;
27305;SDS011;14792;50.886;6.468;2024-02-21T10:37:01;10.70;;;3.67;;
27305;SDS011;14792;50.886;6.468;2024-02-21T10:40:05;12.45;;;3.37;;
27305;SDS011;14792;50.886;6.468;2024-02-21T10:43:08;14.20;;;3.72;;
27305;SDS011;14792;50.886;6.468;2024-02-21T10:46:08;8.78;;;3.37;;
27305;SDS011;14792;50.886;6.468;2024-02-21T10:49:10;11.57;;;3.45;;
27305;SDS011;14792;50.886;6.468;2024-02-21T10:52:15;10.05;;;3.12;;
27305;SDS011;14792;50.886;6.468;2024-02-21T10:55:26;11.43;;;3.65;;
27305;SDS011;14792;50.886;6.468;2024-02-21T10:58:23;8.60;;;3.10;;
27305;SDS011;14792;50.886;6.468;2024-02-21T11:01:24;7.45;;;2.90;;
27305;SDS011;14792;50.886;6.468;2024-02-21T11:04:26;7.72;;;3.40;;
27305;SDS011;14792;50.886;6.468;2024-02-21T11:07:27;10.53;;;3.35;;
27305;SDS011;14792;50.886;6.468;2024-02-21T11:10:29;9.28;;;2.83;;
27305;SDS011;14792;50.886;6.468;2024-02-21T11:13:36;9.78;;;3.00;;
27305;SDS011;14792;50.886;6.468;2024-02-21T11:16:39;9.40;;;2.92;;
27305;SDS011;14792;50.886;6.468;2024-02-21T11:19:39;13.38;;;2.98;;
27305;SDS011;14792;50.886;6.468;2024-02-21T11:22:44;10.58;;;3.15;;
27305;SDS011;14792;50.886;6.468;2024-02-21T11:25:46;12.18;;;3.15;;
27305;SDS011;14792;50.886;6.468;2024-02-21T11:28:57;8.65;;;3.00;;
27305;SDS011;14792;50.886;6.468;2024-02-21T11:31:58;9.50;;;3.00;;
27305;SDS011;14792;50.886;6.468;2024-02-21T11:35:00;6.47;;;2.72;;
27305;SDS011;14792;50.886;6.468;2024-02-21T11:38:07;9.03;;;3.02;;
27305;SDS011;14792;50.886;6.468;2024-02-21T11:41:08;11.78;;;3.15;;
27305;SDS011;14792;50.886;6.468;2024-02-21T11:44:10;7.53;;;3.33;;
27305;SDS011;14792;50.886;6.468;2024-02-21T11:47:13;8.50;;;3.87;;
27305;SDS011;14792;50.886;6.468;2024-02-21T11:50:13;11.55;;;4.12;;
27305;SDS011;14792;50.886;6.468;2024-02-21T11:53:15;10.90;;;3.52;;
27305;SDS011;14792;50.886;6.468;2024-02-21T11:56:16;12.85;;;3.10;;
27305;SDS011;14792;50.886;6.468;2024-02-21T11:59:18;9.95;;;3.08;;
27305;SDS011;14792;50.886;6.468;2024-02-21T12:02:19;12.05;;;3.90;;
27305;SDS011;14792;50.886;6.468;2024-02-21T12:05:21;9.68;;;2.80;;
27305;SDS011;14792;50.886;6.468;2024-02-21T12:08:23;15.93;;;3.05;;
27305;SDS011;14792;50.886;6.468;2024-02-21T12:11:24;6.85;;;2.95;;
27305;SDS011;14792;50.886;6.468;2024-02-21T12:14:27;7.72;;;2.90;;
27305;SDS011;14792;50.886;6.468;2024-02-21T12:20:30;11.40;;;3.98;;
27305;SDS011;14792;50.886;6.468;2024-02-21T12:23:31;12.73;;;4.15;;
27305;SDS011;14792;50.886;6.468;2024-02-21T12:26:32;11.80;;;4.53;;
27305;SDS011;14792;50.886;6.468;2024-02-21T12:29:34;12.63;;;3.58;;
27305;SDS011;14792;50.886;6.468;2024-02-21T12:35:37;12.75;;;4.28;;
27305;SDS011;14792;50.886;6.468;2024-02-21T12:38:39;10.38;;;3.50;;
27305;SDS011;14792;50.886;6.468;2024-02-21T12:41:40;11.35;;;3.62;;
27305;SDS011;14792;50.886;6.468;2024-02-21T12:44:42;8.03;;;3.70;;
27305;SDS011;14792;50.886;6.468;2024-02-21T12:47:43;10.78;;;3.15;;
27305;SDS011;14792;50.886;6.468;2024-02-21T12:50:49;11.97;;;3.47;;
27305;SDS011;14792;50.886;6.468;2024-02-21T12:53:50;13.18;;;4.12;;
27305;SDS011;14792;50.886;6.468;2024-02-21T12:56:51;8.80;;;3.72;;
27305;SDS011;14792;50.886;6.468;2024-02-21T12:59:53;10.70;;;3.27;;
27305;SDS011;14792;50.886;6.468;2024-02-21T13:02:54;9.73;;;3.20;;
27305;SDS011;14792;50.886;6.468;2024-02-21T13:05:56;6.97;;;3.37;;
27305;SDS011;14792;50.886;6.468;2024-02-21T13:08:58;8.80;;;3.17;;
27305;SDS011;14792;50.886;6.468;2024-02-21T13:11:59;8.90;;;2.77;;
27305;SDS011;14792;50.886;6.468;2024-02-21T13:15:01;11.55;;;4.05;;
27305;SDS011;14792;50.886;6.468;2024-02-21T13:18:02;8.45;;;3.20;;
27305;SDS011;14792;50.886;6.468;2024-02-21T13:21:04;10.35;;;3.87;;
27305;SDS011;14792;50.886;6.468;2024-02-21T13:24:05;8.88;;;3.67;;
27305;SDS011;14792;50.886;6.468;2024-02-21T13:27:07;7.67;;;2.95;;
27305;SDS011;14792;50.886;6.468;2024-02-21T13:30:09;10.25;;;3.47;;
27305;SDS011;14792;50.886;6.468;2024-02-21T13:33:10;11.22;;;3.67;;
27305;SDS011;14792;50.886;6.468;2024-02-21T13:36:12;6.10;;;3.12;;
27305;SDS011;14792;50.886;6.468;2024-02-21T13:39:13;11.20;;;3.27;;
27305;SDS011;14792;50.886;6.468;2024-02-21T13:42:15;11.05;;;3.72;;
27305;SDS011;14792;50.886;6.468;2024-02-21T13:45:17;10.13;;;3.15;;
27305;SDS011;14792;50.886;6.468;2024-02-21T13:48:18;7.70;;;3.50;;
27305;SDS011;14792;50.886;6.468;2024-02-21T13:51:20;9.60;;;3.42;;
27305;SDS011;14792;50.886;6.468;2024-02-21T13:54:21;10.05;;;3.30;;
27305;SDS011;14792;50.886;6.468;2024-02-21T13:57:23;10.95;;;4.05;;
27305;SDS011;14792;50.886;6.468;2024-02-21T14:00:25;11.10;;;4.00;;
27305;SDS011;14792;50.886;6.468;2024-02-21T14:03:26;12.28;;;4.62;;
27305;SDS011;14792;50.886;6.468;2024-02-21T14:06:28;12.25;;;4.17;;
27305;SDS011;14792;50.886;6.468;2024-02-21T14:09:29;11.43;;;3.95;;
27305;SDS011;14792;50.886;6.468;2024-02-21T14:12:31;13.85;;;4.45;;
27305;SDS011;14792;50.886;6.468;2024-02-21T14:15:33;12.03;;;3.70;;
27305;SDS011;14792;50.886;6.468;2024-02-21T14:18:34;11.10;;;3.33;;
27305;SDS011;14792;50.886;6.468;2024-02-21T14:21:36;9.78;;;3.95;;
27305;SDS011;14792;50.886;6.468;2024-02-21T14:24:37;7.17;;;3.33;;
27305;SDS011;14792;50.886;6.468;2024-02-21T14:27:39;6.35;;;2.35;;
27305;SDS011;14792;50.886;6.468;2024-02-21T14:30:40;7.78;;;3.20;;
27305;SDS011;14792;50.886;6.468;2024-02-21T14:33:42;8.23;;;3.95;;
27305;SDS011;14792;50.886;6.468;2024-02-21T14:36:44;5.97;;;2.60;;
27305;SDS011;14792;50.886;6.468;2024-02-21T14:39:45;8.30;;;3.40;;
27305;SDS011;14792;50.886;6.468;2024-02-21T14:42:47;7.45;;;3.70;;
27305;SDS011;14792;50.886;6.468;2024-02-21T14:45:48;8.23;;;2.40;;
27305;SDS011;14792;50.886;6.468;2024-02-21T14:48:50;5.08;;;1.75;;
27305;SDS011;14792;50.886;6.468;2024-02-21T14:51:52;4.90;;;2.10;;
27305;SDS011;14792;50.886;6.468;2024-02-21T14:54:53;6.95;;;1.90;;
27305;SDS011;14792;50.886;6.468;2024-02-21T14:57:55;6.72;;;2.20;;
27305;SDS011;14792;50.886;6.468;2024-02-21T15:00:56;10.63;;;2.62;;
27305;SDS011;14792;50.886;6.468;2024-02-21T15:03:58;7.05;;;2.35;;
27305;SDS011;14792;50.886;6.468;2024-02-21T15:07:00;5.67;;;1.85;;
27305;SDS011;14792;50.886;6.468;2024-02-21T15:10:01;7.25;;;2.42;;
27305;SDS011;14792;50.886;6.468;2024-02-21T15:13:03;5.08;;;2.05;;
27305;SDS011;14792;50.886;6.468;2024-02-21T15:16:04;6.78;;;2.20;;
27305;SDS011;14792;50.886;6.468;2024-02-21T15:19:06;5.00;;;2.60;;
27305;SDS011;14792;50.886;6.468;2024-02-21T15:22:07;6.40;;;3.05;;
27305;SDS011;14792;50.886;6.468;2024-02-21T15:25:09;7.45;;;2.45;;
27305;SDS011;14792;50.886;6.468;2024-02-21T15:28:11;4.78;;;2.37;;
27305;SDS011;14792;50.886;6.468;2024-02-21T15:31:19;6.33;;;2.62;;
27305;SDS011;14792;50.886;6.468;2024-02-21T15:34:14;7.42;;;1.98;;
27305;SDS011;14792;50.886;6.468;2024-02-21T15:37:15;7.58;;;2.27;;
27305;SDS011;14792;50.886;6.468;2024-02-21T15:40:17;7.35;;;2.50;;
27305;SDS011;14792;50.886;6.468;2024-02-21T15:43:19;7.20;;;2.87;;
27305;SDS011;14792;50.886;6.468;2024-02-21T15:46:20;6.55;;;2.52;;
27305;SDS011;14792;50.886;6.468;2024-02-21T15:49:22;7.53;;;2.47;;
27305;SDS011;14792;50.886;6.468;2024-02-21T15:52:23;5.55;;;2.60;;
27305;SDS011;14792;50.886;6.468;2024-02-21T15:55:26;7.60;;;2.55;;
27305;SDS011;14792;50.886;6.468;2024-02-21T15:58:26;5.87;;;2.40;;
27305;SDS011;14792;50.886;6.468;2024-02-21T16:01:28;5.35;;;2.75;;
27305;SDS011;14792;50.886;6.468;2024-02-21T16:04:30;7.00;;;2.40;;
27305;SDS011;14792;50.886;6.468;2024-02-21T16:07:31;9.60;;;2.58;;
27305;SDS011;14792;50.886;6.468;2024-02-21T16:10:33;7.10;;;2.90;;
27305;SDS011;14792;50.886;6.468;2024-02-21T16:13:34;5.08;;;2.45;;
27305;SDS011;14792;50.886;6.468;2024-02-21T16:16:36;5.03;;;2.00;;
27305;SDS011;14792;50.886;6.468;2024-02-21T16:19:38;11.55;;;2.52;;
27305;SDS011;14792;50.886;6.468;2024-02-21T16:22:39;5.17;;;2.27;;
27305;SDS011;14792;50.886;6.468;2024-02-21T16:25:41;5.87;;;2.62;;
27305;SDS011;14792;50.886;6.468;2024-02-21T16:28:43;7.65;;;2.90;;
27305;SDS011;14792;50.886;6.468;2024-02-21T16:31:44;6.12;;;1.77;;
27305;SDS011;14792;50.886;6.468;2024-02-21T16:34:46;12.15;;;2.77;;
27305;SDS011;14792;50.886;6.468;2024-02-21T16:37:47;11.83;;;2.70;;
27305;SDS011;14792;50.886;6.468;2024-02-21T16:40:49;9.85;;;2.15;;
27305;SDS011;14792;50.886;6.468;2024-02-21T16:43:50;5.22;;;2.52;;
27305;SDS011;14792;50.886;6.468;2024-02-21T16:46:55;9.50;;;2.27;;
27305;SDS011;14792;50.886;6.468;2024-02-21T16:49:56;11.43;;;2.75;;
27305;SDS011;14792;50.886;6.468;2024-02-21T16:52:58;5.92;;;2.72;;
27305;SDS011;14792;50.886;6.468;2024-02-21T16:55:59;12.70;;;2.87;;
27305;SDS011;14792;50.886;6.468;2024-02-21T16:59:01;7.90;;;2.40;;
27305;SDS011;14792;50.886;6.468;2024-02-21T17:02:03;5.83;;;1.95;;
27305;SDS011;14792;50.886;6.468;2024-02-21T17:05:04;7.55;;;2.52;;
27305;SDS011;14792;50.886;6.468;2024-02-21T17:08:06;8.55;;;2.20;;
27305;SDS011;14792;50.886;6.468;2024-02-21T17:11:07;8.10;;;2.58;;
27305;SDS011;14792;50.886;6.468;2024-02-21T17:14:09;4.53;;;1.98;;
27305;SDS011;14792;50.886;6.468;2024-02-21T17:17:10;11.57;;;2.55;;
27305;SDS011;14792;50.886;6.468;2024-02-21T17:20:12;6.47;;;2.42;;
27305;SDS011;14792;50.886;6.468;2024-02-21T17:23:14;5.67;;;2.67;;
27305;SDS011;14792;50.886;6.468;2024-02-21T17:26:18;5.78;;;2.50;;
27305;SDS011;14792;50.886;6.468;2024-02-21T17:29:19;9.20;;;2.98;;
27305;SDS011;14792;50.886;6.468;2024-02-21T17:32:21;14.58;;;2.37;;
27305;SDS011;14792;50.886;6.468;2024-02-21T17:35:22;8.40;;;2.75;;
27305;SDS011;14792;50.886;6.468;2024-02-21T17:38:24;9.73;;;3.00;;
27305;SDS011;14792;50.886;6.468;2024-02-21T17:41:26;9.35;;;3.40;;
27305;SDS011;14792;50.886;6.468;2024-02-21T17:44:27;8.90;;;2.98;;
27305;SDS011;14792;50.886;6.468;2024-02-21T17:47:29;10.35;;;3.85;;
27305;SDS011;14792;50.886;6.468;2024-02-21T17:50:30;8.13;;;2.25;;
27305;SDS011;14792;50.886;6.468;2024-02-21T17:53:32;8.93;;;2.80;;
27305;SDS011;14792;50.886;6.468;2024-02-21T17:56:34;8.93;;;2.77;;
27305;SDS011;14792;50.886;6.468;2024-02-21T17:59:38;10.93;;;3.00;;
27305;SDS011;14792;50.886;6.468;2024-02-21T18:02:37;10.93;;;3.08;;
27305;SDS011;14792;50.886;6.468;2024-02-21T18:05:38;11.50;;;3.15;;
27305;SDS011;14792;50.886;6.468;2024-02-21T18:08:40;8.33;;;2.70;;
27305;SDS011;14792;50.886;6.468;2024-02-21T18:11:41;8.78;;;2.65;;
27305;SDS011;14792;50.886;6.468;2024-02-21T18:14:43;8.88;;;2.67;;
27305;SDS011;14792;50.886;6.468;2024-02-21T18:17:45;9.23;;;2.67;;